createdAt,value
2022-11-04T00:00:42.857Z,15.65
2022-11-04T00:03:11.041Z,13.73
2022-11-04T00:05:38.468Z,11.77
2022-11-04T00:08:26.312Z,10.35
2022-11-04T00:11:19.545Z,13.88
2022-11-04T00:13:47.504Z,10.98
2022-11-04T00:16:33.915Z,11.13
2022-11-04T00:19:01.626Z,14.02
2022-11-04T00:21:47.655Z,11.82
2022-11-04T00:24:33.791Z,9.35
2022-11-04T00:27:20.350Z,6.57
2022-11-04T00:29:47.478Z,13.23
2022-11-04T00:32:33.311Z,5.65
2022-11-04T00:35:00.344Z,9.98
2022-11-04T00:37:27.602Z,9.05
2022-11-04T00:39:55.085Z,7.75
2022-11-04T00:42:22.246Z,15.35
2022-11-04T00:44:50.033Z,22.02
2022-11-04T00:47:17.066Z,10.30
2022-11-04T00:49:44.318Z,14.38
2022-11-04T00:52:12.073Z,16.63
2022-11-04T00:54:41.553Z,18.05
2022-11-04T00:57:17.518Z,8.38
2022-11-04T00:59:45.668Z,11.40
2022-11-04T01:02:14.008Z,13.90
2022-11-04T01:04:41.997Z,11.20
2022-11-04T01:07:09.313Z,10.68
2022-11-04T01:09:36.571Z,9.15
2022-11-04T01:12:03.918Z,6.03
2022-11-04T01:14:31.085Z,9.30
2022-11-04T01:16:58.624Z,7.80
2022-11-04T01:19:25.993Z,8.90
2022-11-04T01:21:54.459Z,6.50
2022-11-04T01:24:21.558Z,6.65
2022-11-04T01:26:52.161Z,3.92
2022-11-04T01:29:22.411Z,6.05
2022-11-04T01:31:52.921Z,6.45
2022-11-04T01:34:20.199Z,4.20
2022-11-04T01:36:47.509Z,7.13
2022-11-04T01:39:14.862Z,6.55
2022-11-04T01:41:42.322Z,5.50
2022-11-04T01:44:28.004Z,5.45
2022-11-04T01:46:55.453Z,6.13
2022-11-04T01:49:28.345Z,3.53
2022-11-04T01:51:58.338Z,8.18
2022-11-04T01:54:25.970Z,5.80
2022-11-04T01:56:53.917Z,6.28
2022-11-04T01:59:29.540Z,8.48
2022-11-04T02:01:57.117Z,8.25
2022-11-04T02:04:27.637Z,7.18
2022-11-04T02:06:58.875Z,12.10
2022-11-04T02:09:27.502Z,6.30
2022-11-04T02:12:13.962Z,9.13
2022-11-04T02:14:42.030Z,10.25
2022-11-04T02:17:27.500Z,10.02
2022-11-04T02:19:54.774Z,9.98
2022-11-04T02:22:37.588Z,12.65
2022-11-04T02:25:08.574Z,15.27
2022-11-04T02:27:38.972Z,8.45
2022-11-04T02:30:07.962Z,12.35
2022-11-04T02:32:35.416Z,8.25
2022-11-04T02:35:18.008Z,11.73
2022-11-04T02:38:17.666Z,8.27
2022-11-04T02:40:47.547Z,14.43
2022-11-04T02:43:14.545Z,8.45
2022-11-04T02:45:49.900Z,9.27
2022-11-04T02:48:25.484Z,8.93
2022-11-04T02:51:14.156Z,6.03
2022-11-04T02:54:03.737Z,7.57
2022-11-04T02:56:32.193Z,12.68
2022-11-04T02:59:06.441Z,6.70
2022-11-04T03:01:36.041Z,8.98
2022-11-04T03:04:12.994Z,7.00
2022-11-04T03:06:41.275Z,10.43
2022-11-04T03:09:09.003Z,9.15
2022-11-04T03:11:36.894Z,8.43
2022-11-04T03:14:10.099Z,4.28
2022-11-04T03:16:37.995Z,15.60
2022-11-04T03:19:05.083Z,6.65
2022-11-04T03:21:39.844Z,4.95
2022-11-04T03:24:07.915Z,6.53
2022-11-04T03:26:47.402Z,6.93
2022-11-04T03:29:20.907Z,6.82
2022-11-04T03:31:50.418Z,5.80
2022-11-04T03:34:17.589Z,11.70
2022-11-04T03:36:45.073Z,7.70
2022-11-04T03:39:13.006Z,7.53
2022-11-04T03:41:44.556Z,4.90
2022-11-04T03:44:12.231Z,10.88
2022-11-04T03:46:39.926Z,11.57
2022-11-04T03:49:10.002Z,9.57
2022-11-04T03:51:37.111Z,10.02
2022-11-04T03:54:05.164Z,12.20
2022-11-04T03:56:46.745Z,15.32
2022-11-04T03:59:36.039Z,22.60
2022-11-04T04:02:12.753Z,18.92
2022-11-04T04:04:45.986Z,18.77
2022-11-04T04:07:16.226Z,16.52
2022-11-04T04:09:58.928Z,24.63
2022-11-04T04:12:31.133Z,29.50
2022-11-04T04:15:08.376Z,22.77
2022-11-04T04:17:39.129Z,22.17
2022-11-04T04:20:18.325Z,31.05
2022-11-04T04:22:51.380Z,30.05
2022-11-04T04:25:38.463Z,38.50
2022-11-04T04:28:06.163Z,30.58
2022-11-04T04:30:36.334Z,32.53
2022-11-04T04:33:08.905Z,33.70
2022-11-04T04:35:45.072Z,38.17
2022-11-04T04:38:38.761Z,31.33
2022-11-04T04:41:45.224Z,32.20
2022-11-04T04:44:42.744Z,30.02
2022-11-04T04:47:10.858Z,35.70
2022-11-04T04:49:38.002Z,34.55
2022-11-04T04:52:07.851Z,43.33
2022-11-04T04:54:35.396Z,54.50
2022-11-04T04:57:02.566Z,39.38
2022-11-04T04:59:29.969Z,64.22
2022-11-04T05:01:57.600Z,58.97
2022-11-04T05:04:25.720Z,69.63
2022-11-04T05:06:53.345Z,49.22
2022-11-04T05:09:23.093Z,46.60
2022-11-04T05:11:50.550Z,54.40
2022-11-04T05:14:17.791Z,65.97
2022-11-04T05:16:45.152Z,64.20
2022-11-04T05:19:13.142Z,76.13
2022-11-04T05:21:40.489Z,90.28
2022-11-04T05:24:10.093Z,45.88
2022-11-04T05:26:39.082Z,82.85
2022-11-04T05:29:06.904Z,36.83
2022-11-04T05:31:34.313Z,74.53
2022-11-04T05:34:01.752Z,52.58
2022-11-04T05:36:29.222Z,56.80
2022-11-04T05:38:56.769Z,58.58
2022-11-04T05:41:26.673Z,68.55
2022-11-04T05:44:01.130Z,64.13
2022-11-04T05:46:29.077Z,42.38
2022-11-04T05:48:56.382Z,84.75
2022-11-04T05:51:26.371Z,74.72
2022-11-04T05:53:53.695Z,53.08
2022-11-04T05:56:23.547Z,54.78
2022-11-04T05:58:54.115Z,28.27
2022-11-04T06:01:24.651Z,43.95
2022-11-04T06:03:52.419Z,75.43
2022-11-04T06:06:21.106Z,69.40
2022-11-04T06:08:50.272Z,70.88
2022-11-04T06:11:18.286Z,70.25
2022-11-04T06:13:45.316Z,62.35
2022-11-04T06:16:13.056Z,48.90
2022-11-04T06:18:40.362Z,56.67
2022-11-04T06:21:16.416Z,31.17
2022-11-04T06:23:44.148Z,43.42
2022-11-04T06:26:14.636Z,33.95
2022-11-04T06:28:42.151Z,44.92
2022-11-04T06:31:10.810Z,32.38
2022-11-04T06:33:38.115Z,39.30
2022-11-04T06:36:07.111Z,41.28
2022-11-04T06:38:35.939Z,28.13
2022-11-04T06:43:37.871Z,29.55
2022-11-04T06:46:05.047Z,45.45
2022-11-04T06:48:32.399Z,22.90
2022-11-04T06:51:00.585Z,35.65
2022-11-04T06:53:29.240Z,24.98
2022-11-04T06:56:02.913Z,50.45
2022-11-04T06:58:30.299Z,53.72
2022-11-04T07:00:57.517Z,35.40
2022-11-04T07:03:25.636Z,38.22
2022-11-04T07:05:52.737Z,63.05
2022-11-04T07:08:20.475Z,52.45
2022-11-04T07:10:50.047Z,45.15
2022-11-04T07:13:18.013Z,25.33
2022-11-04T07:15:45.092Z,25.80
2022-11-04T07:18:12.483Z,47.05
2022-11-04T07:20:40.794Z,31.08
2022-11-04T07:23:08.523Z,52.05
2022-11-04T07:25:36.226Z,25.77
2022-11-04T07:28:05.668Z,29.30
2022-11-04T07:30:33.152Z,33.00
2022-11-04T07:33:00.237Z,29.50
2022-11-04T07:35:28.005Z,26.42
2022-11-04T07:37:56.397Z,36.42
2022-11-04T07:40:23.828Z,25.73
2022-11-04T07:42:50.986Z,32.80
2022-11-04T07:45:21.827Z,27.50
2022-11-04T07:47:51.962Z,34.15
2022-11-04T07:50:22.410Z,32.30
2022-11-04T07:52:51.110Z,31.90
2022-11-04T07:55:19.342Z,26.95
2022-11-04T07:57:47.127Z,32.22
2022-11-04T08:00:15.688Z,34.33
2022-11-04T08:02:47.339Z,25.40
2022-11-04T08:05:15.819Z,27.30
2022-11-04T08:07:43.719Z,22.17
2022-11-04T08:10:11.143Z,24.70
2022-11-04T08:12:40.778Z,18.85
2022-11-04T08:15:08.554Z,24.98
2022-11-04T08:17:35.699Z,21.83
2022-11-04T08:20:03.175Z,19.90
2022-11-04T08:22:33.011Z,18.38
2022-11-04T08:25:00.722Z,19.23
2022-11-04T08:27:27.760Z,20.95
2022-11-04T08:29:55.619Z,27.35
2022-11-04T08:32:23.286Z,22.50
2022-11-04T08:34:53.711Z,19.30
2022-11-04T08:37:24.246Z,26.85
2022-11-04T08:39:52.005Z,26.90
2022-11-04T08:42:22.260Z,21.40
2022-11-04T08:44:51.847Z,27.92
2022-11-04T08:47:19.614Z,19.45
2022-11-04T08:49:47.018Z,21.45
2022-11-04T08:52:15.019Z,27.60
2022-11-04T08:54:44.168Z,22.25
2022-11-04T08:57:11.589Z,17.70
2022-11-04T08:59:39.234Z,18.17
2022-11-04T09:02:06.911Z,24.85
2022-11-04T09:04:35.251Z,20.92
2022-11-04T09:07:07.856Z,16.58
2022-11-04T09:09:36.132Z,21.42
2022-11-04T09:12:03.685Z,20.05
2022-11-04T09:14:31.125Z,22.45
2022-11-04T09:16:58.802Z,16.38
2022-11-04T09:19:26.292Z,18.27
2022-11-04T09:21:53.725Z,23.33
2022-11-04T09:24:26.487Z,20.83
2022-11-04T09:26:53.771Z,21.50
2022-11-04T09:29:23.938Z,26.33
2022-11-04T09:31:55.537Z,17.95
2022-11-04T09:34:22.757Z,22.35
2022-11-04T09:36:53.097Z,20.13
2022-11-04T09:39:21.132Z,25.83
2022-11-04T09:41:55.001Z,19.77
2022-11-04T09:44:53.681Z,21.50
2022-11-04T09:47:25.824Z,16.25
2022-11-04T09:50:00.581Z,15.60
2022-11-04T09:52:33.908Z,20.77
2022-11-04T09:55:05.941Z,22.17
2022-11-04T09:57:33.912Z,21.98
2022-11-04T10:00:01.911Z,20.55
2022-11-04T10:02:47.661Z,22.58
2022-11-04T10:05:23.725Z,19.33
2022-11-04T10:07:51.006Z,19.63
2022-11-04T10:10:20.624Z,20.52
2022-11-04T10:13:08.039Z,23.92
2022-11-04T10:15:38.802Z,27.35
2022-11-04T10:18:14.694Z,27.30
2022-11-04T10:20:47.866Z,32.22
2022-11-04T10:23:35.314Z,29.92
2022-11-04T10:26:21.107Z,28.25
2022-11-04T10:29:02.167Z,24.95
2022-11-04T10:31:29.779Z,30.75
2022-11-04T10:34:04.903Z,27.42
2022-11-04T10:36:33.191Z,27.27
2022-11-04T10:39:04.878Z,26.33
2022-11-04T10:41:36.710Z,27.08
2022-11-04T10:44:04.153Z,26.77
2022-11-04T10:46:52.896Z,27.05
2022-11-04T10:49:39.045Z,21.92
2022-11-04T10:52:07.137Z,27.63
2022-11-04T10:54:39.940Z,26.33
2022-11-04T10:57:06.975Z,29.75
2022-11-04T10:59:37.551Z,21.20
2022-11-04T11:02:05.540Z,25.70
2022-11-04T11:04:35.088Z,26.77
2022-11-04T11:07:03.797Z,29.05
2022-11-04T11:09:33.679Z,26.70
2022-11-04T11:12:01.262Z,24.40
2022-11-04T11:14:28.718Z,20.02
2022-11-04T11:16:56.664Z,20.73
2022-11-04T11:19:26.046Z,20.40
2022-11-04T11:21:57.336Z,20.00
2022-11-04T11:24:30.760Z,22.38
2022-11-04T11:26:59.396Z,17.60
2022-11-04T11:29:40.503Z,16.83
2022-11-04T11:32:20.869Z,20.52
2022-11-04T11:34:49.070Z,21.63
2022-11-04T11:37:22.623Z,17.88
2022-11-04T11:42:19.395Z,15.30
2022-11-04T11:44:51.863Z,22.75
2022-11-04T11:47:23.643Z,21.90
2022-11-04T11:50:09.790Z,16.92
2022-11-04T11:52:38.546Z,14.57
2022-11-04T11:55:27.056Z,19.30
2022-11-04T12:01:22.143Z,14.88
2022-11-04T12:09:41.948Z,12.75
2022-11-04T12:12:24.237Z,17.50
2022-11-04T12:15:01.192Z,16.90
2022-11-04T12:18:00.905Z,15.25
2022-11-04T12:20:40.133Z,12.88
2022-11-04T12:23:18.963Z,9.95
2022-11-04T12:26:04.631Z,11.45
2022-11-04T12:28:41.443Z,16.85
2022-11-04T12:31:26.886Z,15.63
2022-11-04T12:34:12.866Z,15.15
2022-11-04T12:36:44.283Z,20.90
2022-11-04T12:39:20.548Z,14.45
2022-11-04T12:44:54.155Z,12.57
2022-11-04T12:47:24.388Z,15.25
2022-11-04T12:50:00.416Z,12.68
2022-11-04T12:52:30.833Z,14.85
2022-11-04T12:54:58.293Z,13.82
2022-11-04T12:57:28.995Z,15.90
2022-11-04T12:59:56.084Z,10.75
2022-11-04T13:02:26.473Z,12.40
2022-11-04T13:05:00.881Z,9.27
2022-11-04T13:07:33.854Z,6.80
2022-11-04T13:10:07.390Z,10.95
2022-11-04T13:12:40.686Z,7.78
2022-11-04T13:17:39.814Z,7.45
2022-11-04T13:20:27.168Z,11.02
2022-11-04T13:22:58.999Z,9.90
2022-11-04T13:25:31.808Z,7.50
2022-11-04T13:28:00.704Z,12.18
2022-11-04T13:30:31.203Z,7.55
2022-11-04T13:33:02.866Z,9.13
2022-11-04T13:35:50.871Z,8.45
2022-11-04T13:38:21.636Z,7.22
2022-11-04T13:41:00.121Z,8.15
2022-11-04T13:43:39.591Z,8.57
2022-11-04T13:46:19.726Z,9.95
2022-11-04T13:48:55.861Z,8.30
2022-11-04T13:51:23.177Z,7.20
2022-11-04T13:53:53.706Z,8.63
2022-11-04T13:56:33.399Z,4.53
2022-11-04T13:59:22.308Z,8.32
2022-11-04T14:01:50.492Z,6.75
2022-11-04T14:04:27.094Z,4.63
2022-11-04T14:07:00.737Z,3.20
2022-11-04T14:09:35.919Z,4.65
2022-11-04T14:12:13.579Z,4.60
2022-11-04T14:14:52.196Z,2.25
2022-11-04T14:17:35.118Z,1.77
2022-11-04T14:20:06.299Z,4.22
2022-11-04T14:22:35.592Z,2.67
2022-11-04T14:25:05.379Z,1.63
2022-11-04T14:27:39.362Z,1.83
2022-11-04T14:30:07.983Z,1.45
2022-11-04T14:32:39.084Z,4.40
2022-11-04T14:35:08.826Z,2.97
2022-11-04T14:37:36.604Z,4.07
2022-11-04T14:40:09.490Z,3.20
2022-11-04T14:42:52.388Z,3.75
2022-11-04T14:45:23.016Z,4.00
2022-11-04T14:47:52.585Z,1.52
2022-11-04T14:50:22.761Z,1.27
2022-11-04T14:52:52.506Z,4.85
2022-11-04T14:55:38.170Z,5.80
2022-11-04T14:58:24.662Z,4.78
2022-11-04T15:00:51.976Z,2.60
2022-11-04T15:06:11.433Z,4.28
2022-11-04T15:08:38.741Z,4.40
2022-11-04T15:11:12.563Z,6.00
2022-11-04T15:13:51.527Z,4.25
2022-11-04T15:16:25.810Z,6.75
2022-11-04T15:18:54.527Z,3.88
2022-11-04T15:21:22.317Z,4.00
2022-11-04T15:23:59.207Z,3.10
2022-11-04T15:26:30.200Z,3.97
2022-11-04T15:28:59.738Z,6.70
2022-11-04T15:31:29.280Z,3.63
2022-11-04T15:33:57.949Z,5.53
2022-11-04T15:36:27.250Z,2.00
2022-11-04T15:38:59.059Z,4.88
2022-11-04T15:41:46.671Z,6.13
2022-11-04T15:44:27.439Z,2.33
2022-11-04T15:46:56.484Z,6.03
2022-11-04T15:49:25.434Z,4.00
2022-11-04T15:51:55.970Z,5.60
2022-11-04T15:54:30.869Z,6.10
2022-11-04T15:57:00.918Z,6.60
2022-11-04T15:59:36.121Z,5.82
2022-11-04T16:02:05.194Z,4.18
2022-11-04T16:04:33.693Z,5.88
2022-11-04T16:07:21.987Z,3.63
2022-11-04T16:09:52.450Z,4.15
2022-11-04T16:12:37.993Z,6.63
2022-11-04T16:15:05.635Z,6.85
2022-11-04T16:17:33.459Z,3.97
2022-11-04T16:20:06.388Z,2.85
2022-11-04T16:22:42.519Z,3.15
2022-11-04T16:25:20.233Z,2.72
2022-11-04T16:27:49.494Z,2.72
2022-11-04T16:30:17.275Z,1.98
2022-11-04T16:32:48.169Z,4.72
2022-11-04T16:35:17.261Z,2.83
2022-11-04T16:37:44.509Z,1.58
2022-11-04T16:40:11.731Z,5.57
2022-11-04T16:42:40.785Z,2.78
2022-11-04T16:45:09.987Z,4.90
2022-11-04T16:47:40.136Z,5.15
2022-11-04T16:50:13.943Z,6.30
2022-11-04T16:52:44.189Z,6.47
2022-11-04T16:55:14.110Z,7.07
2022-11-04T16:57:41.361Z,4.70
2022-11-04T17:00:13.083Z,3.97
2022-11-04T17:02:41.261Z,5.25
2022-11-04T17:05:09.623Z,7.90
2022-11-04T17:07:52.825Z,9.82
2022-11-04T17:10:27.133Z,7.15
2022-11-04T17:12:54.899Z,5.18
2022-11-04T17:15:22.954Z,5.18
2022-11-04T17:17:53.330Z,8.43
2022-11-04T17:20:23.423Z,9.95
2022-11-04T17:22:53.445Z,7.03
2022-11-04T17:25:22.925Z,9.48
2022-11-04T17:27:52.695Z,5.60
2022-11-04T17:30:24.564Z,5.63
2022-11-04T17:32:52.197Z,6.55
2022-11-04T17:35:19.652Z,6.75
2022-11-04T17:37:46.963Z,10.00
2022-11-04T17:40:21.323Z,12.60
2022-11-04T17:43:11.974Z,4.30
2022-11-04T17:45:41.285Z,10.95
2022-11-04T17:48:10.396Z,8.73
2022-11-04T17:50:39.419Z,5.95
2022-11-04T17:53:06.968Z,4.95
2022-11-04T17:55:37.566Z,9.77
2022-11-04T17:58:04.869Z,6.93
2022-11-04T18:00:39.592Z,8.90
2022-11-04T18:03:09.197Z,9.15
2022-11-04T18:05:36.722Z,12.93
2022-11-04T18:08:04.800Z,7.25
2022-11-04T18:10:31.908Z,10.70
2022-11-04T18:12:59.143Z,7.65
2022-11-04T18:15:26.314Z,7.07
2022-11-04T18:17:53.529Z,7.45
2022-11-04T18:20:23.794Z,9.20
2022-11-04T18:22:50.852Z,8.52
2022-11-04T18:25:18.467Z,11.10
2022-11-04T18:27:45.734Z,12.27
2022-11-04T18:30:13.512Z,8.68
2022-11-04T18:32:40.805Z,9.98
2022-11-04T18:35:09.288Z,11.50
2022-11-04T18:37:36.790Z,8.55
2022-11-04T18:40:04.239Z,11.80
2022-11-04T18:42:31.758Z,9.40
2022-11-04T18:44:59.004Z,9.43
2022-11-04T18:47:29.434Z,18.88
2022-11-04T18:49:56.497Z,10.57
2022-11-04T18:52:30.869Z,13.77
2022-11-04T18:54:58.358Z,8.75
2022-11-04T18:57:26.448Z,10.40
2022-11-04T18:59:57.364Z,15.32
2022-11-04T19:02:26.067Z,9.52
2022-11-04T19:04:53.828Z,10.85
2022-11-04T19:07:21.602Z,11.50
2022-11-04T19:09:52.187Z,12.18
2022-11-04T19:12:38.237Z,14.30
2022-11-04T19:15:06.428Z,12.70
2022-11-04T19:17:35.716Z,15.98
2022-11-04T19:20:08.407Z,13.60
2022-11-04T19:22:40.599Z,11.30
2022-11-04T19:25:14.372Z,8.07
2022-11-04T19:27:42.277Z,13.45
2022-11-04T19:30:09.754Z,13.60
2022-11-04T19:32:37.349Z,22.00
2022-11-04T19:35:05.108Z,12.38
2022-11-04T19:37:33.355Z,11.90
2022-11-04T19:40:00.475Z,16.58
2022-11-04T19:42:46.480Z,12.55
2022-11-04T19:45:16.809Z,15.25
2022-11-04T19:47:44.372Z,13.35
2022-11-04T19:50:13.541Z,17.15
2022-11-04T19:52:41.263Z,13.65
2022-11-04T19:55:09.429Z,9.55
2022-11-04T19:57:39.254Z,11.73
2022-11-04T20:00:06.807Z,10.10
2022-11-04T20:02:34.511Z,16.83
2022-11-04T20:05:02.068Z,10.80
2022-11-04T20:07:29.170Z,13.38
2022-11-04T20:09:56.235Z,12.40
2022-11-04T20:12:42.110Z,11.52
2022-11-04T20:15:09.891Z,11.15
2022-11-04T20:17:37.476Z,14.40
2022-11-04T20:20:05.089Z,14.27
2022-11-04T20:22:32.283Z,18.27
2022-11-04T20:24:59.695Z,13.65
2022-11-04T20:27:27.059Z,14.48
2022-11-04T20:29:54.408Z,12.65
2022-11-04T20:32:21.795Z,16.60
2022-11-04T20:34:57.117Z,14.88
2022-11-04T20:37:25.804Z,11.50
2022-11-04T20:39:53.475Z,10.23
2022-11-04T20:42:20.846Z,12.32
2022-11-04T20:44:50.260Z,18.98
2022-11-04T20:47:18.218Z,14.85
2022-11-04T20:49:45.438Z,13.63
2022-11-04T20:52:12.644Z,12.70
2022-11-04T20:54:40.016Z,14.18
2022-11-04T20:57:10.503Z,16.15
2022-11-04T20:59:38.236Z,18.95
2022-11-04T21:02:05.648Z,16.75
2022-11-04T21:04:36.197Z,16.02
2022-11-04T21:07:04.611Z,18.58
2022-11-04T21:09:32.707Z,16.42
2022-11-04T21:12:00.208Z,18.42
2022-11-04T21:14:29.699Z,20.13
2022-11-04T21:16:57.178Z,13.32
2022-11-04T21:19:24.424Z,12.55
2022-11-04T21:21:51.799Z,15.32
2022-11-04T21:24:19.069Z,15.88
2022-11-04T21:26:47.060Z,12.25
2022-11-04T21:29:15.933Z,12.77
2022-11-04T21:31:43.990Z,21.48
2022-11-04T21:34:12.034Z,13.38
2022-11-04T21:36:39.972Z,15.88
2022-11-04T21:39:07.424Z,15.35
2022-11-04T21:41:37.453Z,15.73
2022-11-04T21:44:13.469Z,16.20
2022-11-04T21:46:40.519Z,16.67
2022-11-04T21:49:07.666Z,18.42
2022-11-04T21:51:35.020Z,20.15
2022-11-04T21:54:06.298Z,21.25
2022-11-04T21:56:33.419Z,17.55
2022-11-04T21:59:00.621Z,20.05
2022-11-04T22:01:28.746Z,21.48
2022-11-04T22:03:59.296Z,27.23
2022-11-04T22:06:33.263Z,19.55
2022-11-04T22:09:02.254Z,23.42
2022-11-04T22:11:30.767Z,18.83
2022-11-04T22:13:59.241Z,19.02
2022-11-04T22:16:27.719Z,22.40
2022-11-04T22:18:56.113Z,18.55
2022-11-04T22:21:24.211Z,21.00
2022-11-04T22:23:51.741Z,16.73
2022-11-04T22:26:26.267Z,19.42
2022-11-04T22:28:54.322Z,16.23
2022-11-04T22:31:23.543Z,19.63
2022-11-04T22:33:51.433Z,18.70
2022-11-04T22:36:19.211Z,16.02
2022-11-04T22:38:46.503Z,22.33
2022-11-04T22:41:15.153Z,19.15
2022-11-04T22:43:42.977Z,17.48
2022-11-04T22:46:13.623Z,22.90
2022-11-04T22:48:41.147Z,11.95
2022-11-04T22:51:09.185Z,19.20
2022-11-04T22:53:37.276Z,17.85
2022-11-04T22:56:07.011Z,12.25
2022-11-04T22:58:34.526Z,7.35
2022-11-04T23:01:03.618Z,9.77
2022-11-04T23:03:31.411Z,12.77
2022-11-04T23:06:03.906Z,12.32
2022-11-04T23:08:32.135Z,14.85
2022-11-04T23:11:20.442Z,13.55
2022-11-04T23:14:19.759Z,6.85
2022-11-04T23:17:09.390Z,11.60
2022-11-04T23:19:42.500Z,9.38
2022-11-04T23:22:28.725Z,13.55
2022-11-04T23:25:11.697Z,11.55
2022-11-04T23:28:04.054Z,11.27
2022-11-04T23:30:33.065Z,11.85
2022-11-04T23:33:04.320Z,7.10
2022-11-04T23:35:55.110Z,7.00
2022-11-04T23:38:22.281Z,6.82
2022-11-04T23:41:11.135Z,10.15
2022-11-04T23:43:40.931Z,6.63
2022-11-04T23:46:27.129Z,12.82
2022-11-04T23:49:15.577Z,7.57
2022-11-04T23:52:02.397Z,8.00
2022-11-04T23:54:48.491Z,10.23
2022-11-04T23:57:35.470Z,6.72
